createdAt,value
2022-08-17T00:00:18.284Z,0.00
2022-08-17T00:01:14.025Z,0.00
2022-08-17T00:02:18.721Z,0.00
2022-08-17T00:03:14.585Z,0.00
2022-08-17T00:04:13.064Z,0.00
2022-08-17T00:05:12.920Z,0.00
2022-08-17T00:06:12.909Z,0.00
2022-08-17T00:07:12.950Z,0.00
2022-08-17T00:08:12.895Z,0.00
2022-08-17T00:09:12.881Z,0.00
2022-08-17T00:10:13.868Z,0.00
2022-08-17T00:11:12.884Z,0.00
2022-08-17T00:12:43.136Z,0.00
2022-08-17T00:13:13.860Z,0.00
2022-08-17T00:14:12.904Z,0.00
2022-08-17T00:15:12.884Z,0.00
2022-08-17T00:16:12.806Z,0.00
2022-08-17T00:17:12.862Z,0.00
2022-08-17T00:19:06.412Z,0.00
2022-08-17T00:19:13.783Z,0.00
2022-08-17T00:20:12.805Z,0.00
2022-08-17T00:21:12.759Z,0.00
2022-08-17T00:22:35.207Z,0.00
2022-08-17T00:23:13.903Z,0.00
2022-08-17T00:24:12.726Z,0.00
2022-08-17T00:25:12.742Z,0.00
2022-08-17T00:26:12.690Z,0.00
2022-08-17T00:27:12.784Z,0.00
2022-08-17T00:28:12.779Z,0.00
2022-08-17T00:29:13.389Z,0.00
2022-08-17T00:30:13.659Z,0.00
2022-08-17T00:31:12.684Z,0.00
2022-08-17T00:33:13.959Z,0.00
2022-08-17T00:33:16.875Z,0.00
2022-08-17T00:34:12.664Z,0.00
2022-08-17T00:35:12.601Z,0.00
2022-08-17T00:36:12.605Z,0.00
2022-08-17T00:37:12.574Z,0.00
2022-08-17T00:38:12.600Z,0.00
2022-08-17T00:39:12.758Z,0.00
2022-08-17T00:40:12.598Z,0.00
2022-08-17T00:41:12.646Z,0.00
2022-08-17T00:42:12.520Z,0.00
2022-08-17T00:43:12.575Z,0.00
2022-08-17T00:44:12.633Z,0.00
2022-08-17T00:45:12.495Z,0.00
2022-08-17T00:46:12.516Z,0.00
2022-08-17T00:47:12.587Z,0.00
2022-08-17T00:48:23.817Z,0.00
2022-08-17T00:49:13.527Z,0.00
2022-08-17T00:50:12.438Z,0.00
2022-08-17T00:51:12.419Z,0.00
2022-08-17T00:52:12.429Z,0.00
2022-08-17T00:53:12.425Z,0.00
2022-08-17T00:54:12.447Z,0.00
2022-08-17T00:55:12.428Z,0.00
2022-08-17T00:56:12.385Z,0.00
2022-08-17T00:57:12.380Z,0.00
2022-08-17T00:58:12.379Z,0.00
2022-08-17T00:59:12.381Z,0.00
2022-08-17T01:00:12.348Z,0.00
2022-08-17T01:01:12.387Z,0.00
2022-08-17T01:02:13.312Z,0.00
2022-08-17T01:03:12.299Z,0.00
2022-08-17T01:11:13.702Z,0.00
2022-08-17T01:12:13.686Z,0.00
2022-08-17T01:13:13.654Z,0.00
2022-08-17T01:14:13.770Z,0.00
2022-08-17T01:15:13.740Z,0.00
2022-08-17T01:16:13.632Z,0.00
2022-08-17T01:17:13.628Z,0.00
2022-08-17T01:18:13.655Z,0.00
2022-08-17T01:19:13.605Z,0.00
2022-08-17T01:20:13.592Z,0.00
2022-08-17T01:21:13.623Z,0.00
2022-08-17T01:22:13.579Z,0.00
2022-08-17T01:23:18.542Z,0.00
2022-08-17T01:24:14.545Z,0.00
2022-08-17T01:25:13.517Z,0.00
2022-08-17T01:26:13.521Z,0.00
2022-08-17T01:27:13.507Z,0.00
2022-08-17T01:28:33.458Z,0.00
2022-08-17T01:29:14.512Z,0.00
2022-08-17T01:30:58.226Z,0.00
2022-08-17T01:31:14.474Z,0.00
2022-08-17T01:32:13.486Z,0.00
2022-08-17T01:33:13.453Z,0.00
2022-08-17T01:34:13.441Z,0.00
2022-08-17T01:35:13.410Z,0.00
2022-08-17T01:36:13.404Z,0.00
2022-08-17T01:37:13.387Z,0.00
2022-08-17T01:38:13.421Z,0.00
2022-08-17T01:39:13.397Z,0.00
2022-08-17T01:40:13.386Z,0.00
2022-08-17T01:41:13.365Z,0.00
2022-08-17T01:42:13.333Z,0.00
2022-08-17T01:43:13.324Z,0.00
2022-08-17T01:44:13.329Z,0.00
2022-08-17T01:45:13.353Z,0.00
2022-08-17T01:46:13.289Z,0.00
2022-08-17T01:47:13.292Z,0.00
2022-08-17T01:48:13.273Z,0.00
2022-08-17T01:49:13.293Z,0.00
2022-08-17T01:50:13.251Z,0.00
2022-08-17T01:51:13.279Z,0.00
2022-08-17T01:52:13.286Z,0.00
2022-08-17T01:53:13.216Z,0.00
2022-08-17T01:54:13.226Z,0.00
2022-08-17T01:55:13.203Z,0.00
2022-08-17T01:56:13.189Z,0.00
2022-08-17T01:57:13.200Z,0.00
2022-08-17T01:58:13.218Z,0.00
2022-08-17T01:59:13.253Z,0.00
2022-08-17T02:00:13.176Z,0.00
2022-08-17T02:01:13.211Z,0.00
2022-08-17T02:02:13.121Z,0.00
2022-08-17T02:03:14.150Z,0.00
2022-08-17T02:04:13.132Z,0.00
2022-08-17T02:05:13.086Z,0.00
2022-08-17T02:06:27.211Z,0.00
2022-08-17T02:07:14.100Z,0.00
2022-08-17T02:08:19.828Z,0.00
2022-08-17T02:09:16.470Z,0.00
2022-08-17T02:10:20.287Z,0.00
2022-08-17T02:11:14.023Z,0.00
2022-08-17T02:12:38.444Z,0.00
2022-08-17T02:13:14.028Z,0.00
2022-08-17T02:14:13.004Z,0.00
2022-08-17T02:15:12.975Z,0.00
2022-08-17T02:16:12.981Z,0.00
2022-08-17T02:17:12.956Z,0.00
2022-08-17T02:18:12.948Z,0.00
2022-08-17T02:19:12.960Z,0.00
2022-08-17T02:20:12.926Z,0.00
2022-08-17T02:21:12.916Z,0.00
2022-08-17T02:22:12.916Z,0.00
2022-08-17T02:23:12.910Z,0.00
2022-08-17T02:24:12.907Z,0.00
2022-08-17T02:25:12.912Z,0.00
2022-08-17T02:26:23.932Z,0.00
2022-08-17T02:27:13.863Z,0.00
2022-08-17T02:28:12.837Z,0.00
2022-08-17T02:29:12.912Z,0.00
2022-08-17T02:30:59.470Z,0.00
2022-08-17T02:31:13.802Z,0.00
2022-08-17T02:32:12.802Z,0.00
2022-08-17T02:33:13.785Z,0.00
2022-08-17T02:34:12.856Z,0.00
2022-08-17T02:35:12.757Z,0.00
2022-08-17T02:36:12.842Z,0.00
2022-08-17T02:37:12.783Z,0.00
2022-08-17T02:38:12.726Z,0.00
2022-08-17T02:39:12.717Z,0.00
2022-08-17T02:40:12.803Z,0.00
2022-08-17T02:41:12.737Z,0.00
2022-08-17T02:42:12.765Z,0.00
2022-08-17T02:43:12.699Z,0.00
2022-08-17T02:44:12.718Z,0.00
2022-08-17T02:45:12.650Z,0.00
2022-08-17T02:46:12.679Z,0.00
2022-08-17T02:47:12.646Z,0.00
2022-08-17T02:48:12.640Z,0.00
2022-08-17T02:49:12.625Z,0.00
2022-08-17T02:50:12.611Z,0.00
2022-08-17T02:51:12.645Z,0.00
2022-08-17T02:52:12.681Z,0.00
2022-08-17T02:53:12.562Z,0.00
2022-08-17T02:54:39.784Z,0.00
2022-08-17T02:55:13.554Z,0.00
2022-08-17T02:56:12.543Z,0.00
2022-08-17T02:57:12.521Z,0.00
2022-08-17T02:58:12.510Z,0.00
2022-08-17T02:59:12.518Z,0.00
2022-08-17T03:00:12.523Z,0.00
2022-08-17T03:01:12.543Z,0.00
2022-08-17T03:02:12.531Z,0.00
2022-08-17T03:03:12.460Z,0.00
2022-08-17T03:04:12.460Z,0.00
2022-08-17T03:05:12.430Z,0.00
2022-08-17T03:06:12.426Z,0.00
2022-08-17T03:07:12.409Z,0.00
2022-08-17T03:08:13.410Z,0.00
2022-08-17T03:09:12.423Z,0.00
2022-08-17T03:10:12.383Z,0.00
2022-08-17T03:11:12.364Z,0.00
2022-08-17T03:12:12.358Z,0.00
2022-08-17T03:13:12.401Z,0.00
2022-08-17T03:14:12.359Z,0.00
2022-08-17T03:15:12.371Z,0.00
2022-08-17T03:16:12.315Z,0.00
2022-08-17T03:17:12.781Z,0.00
2022-08-17T03:18:19.269Z,0.00
2022-08-17T03:19:13.299Z,0.00
2022-08-17T03:20:12.305Z,0.00
2022-08-17T03:21:12.326Z,0.00
2022-08-17T03:22:35.698Z,0.00
2022-08-17T03:23:13.248Z,0.00
2022-08-17T03:24:12.241Z,0.00
2022-08-17T03:25:12.264Z,0.00
2022-08-17T03:26:15.352Z,0.00
2022-08-17T03:27:12.201Z,0.00
2022-08-17T03:28:12.245Z,0.00
2022-08-17T03:29:12.202Z,0.00
2022-08-17T03:30:12.230Z,0.00
2022-08-17T03:31:12.153Z,0.00
2022-08-17T03:32:12.157Z,0.00
2022-08-17T03:33:12.127Z,0.00
2022-08-17T03:34:12.152Z,0.00
2022-08-17T03:35:12.136Z,0.00
2022-08-17T03:36:12.181Z,0.00
2022-08-17T03:37:12.097Z,0.00
2022-08-17T03:38:12.075Z,0.00
2022-08-17T03:39:12.184Z,0.00
2022-08-17T03:40:12.191Z,0.00
2022-08-17T03:41:12.101Z,0.00
2022-08-17T03:42:14.323Z,0.00
2022-08-17T03:43:13.026Z,0.00
2022-08-17T03:44:12.058Z,0.00
2022-08-17T03:45:15.372Z,0.00
2022-08-17T03:46:34.285Z,0.00
2022-08-17T03:47:12.993Z,0.00
2022-08-17T03:48:11.992Z,0.00
2022-08-17T03:49:12.004Z,0.00
2022-08-17T03:50:11.952Z,0.00
2022-08-17T03:51:14.785Z,0.00
2022-08-17T03:52:11.973Z,0.00
2022-08-17T03:53:11.947Z,0.00
2022-08-17T03:54:11.984Z,0.00
2022-08-17T03:55:11.891Z,0.00
2022-08-17T03:56:11.920Z,0.00
2022-08-17T03:57:11.898Z,0.00
2022-08-17T03:58:11.875Z,0.00
2022-08-17T03:59:20.861Z,0.00
2022-08-17T04:00:12.883Z,4.00
2022-08-17T04:01:11.903Z,4.00
2022-08-17T04:02:11.873Z,4.00
2022-08-17T04:03:11.827Z,0.00
2022-08-17T04:04:11.836Z,0.00
2022-08-17T04:05:11.811Z,0.00
2022-08-17T04:06:11.776Z,4.00
2022-08-17T04:07:11.775Z,4.00
2022-08-17T04:08:11.782Z,0.00
2022-08-17T04:09:11.762Z,4.00
2022-08-17T04:10:11.737Z,4.00
2022-08-17T04:11:11.729Z,4.00
2022-08-17T04:12:11.729Z,8.00
2022-08-17T04:13:11.730Z,8.00
2022-08-17T04:14:11.871Z,12.00
2022-08-17T04:15:11.705Z,16.00
2022-08-17T04:16:11.694Z,16.00
2022-08-17T04:17:11.686Z,20.00
2022-08-17T04:18:11.702Z,24.00
2022-08-17T04:19:11.637Z,28.00
2022-08-17T04:20:11.659Z,32.00
2022-08-17T04:21:11.676Z,36.00
2022-08-17T04:22:11.622Z,44.00
2022-08-17T04:23:12.612Z,52.00
2022-08-17T04:24:11.761Z,56.00
2022-08-17T04:25:11.575Z,68.00
2022-08-17T04:26:11.632Z,84.00
2022-08-17T04:27:12.551Z,92.00
2022-08-17T04:28:16.209Z,92.00
2022-08-17T04:29:11.569Z,100.00
2022-08-17T04:30:11.599Z,112.00
2022-08-17T04:31:11.518Z,136.00
2022-08-17T04:32:11.520Z,168.00
2022-08-17T04:33:11.639Z,212.00
2022-08-17T04:34:11.498Z,252.00
2022-08-17T04:35:11.466Z,308.00
2022-08-17T04:36:11.457Z,376.00
2022-08-17T04:37:11.560Z,460.00
2022-08-17T04:38:11.470Z,544.00
2022-08-17T04:39:11.417Z,612.00
2022-08-17T04:40:11.455Z,656.00
2022-08-17T04:41:11.402Z,656.00
2022-08-17T04:42:11.416Z,616.00
2022-08-17T04:43:11.433Z,552.00
2022-08-17T04:44:11.520Z,496.00
2022-08-17T04:45:11.353Z,468.00
2022-08-17T04:46:11.346Z,456.00
2022-08-17T04:47:11.356Z,468.00
2022-08-17T04:48:11.362Z,488.00
2022-08-17T04:49:11.312Z,500.00
2022-08-17T04:50:11.379Z,524.00
2022-08-17T04:51:11.294Z,540.00
2022-08-17T04:52:11.277Z,540.00
2022-08-17T04:53:12.277Z,500.00
2022-08-17T04:54:11.257Z,432.00
2022-08-17T04:55:11.246Z,368.00
2022-08-17T04:56:11.813Z,336.00
2022-08-17T04:57:12.249Z,328.00
2022-08-17T04:58:11.228Z,344.00
2022-08-17T04:59:11.288Z,368.00
2022-08-17T05:00:11.213Z,396.00
2022-08-17T05:01:11.243Z,424.00
2022-08-17T05:02:11.242Z,444.00
2022-08-17T05:03:11.172Z,460.00
2022-08-17T05:04:33.426Z,484.00
2022-08-17T05:05:12.196Z,512.00
2022-08-17T05:06:11.143Z,568.00
2022-08-17T05:07:11.174Z,640.00
2022-08-17T05:08:11.110Z,700.00
2022-08-17T05:09:11.084Z,748.00
2022-08-17T05:10:11.108Z,776.00
2022-08-17T05:11:11.068Z,800.00
2022-08-17T05:12:11.067Z,824.00
2022-08-17T05:13:11.146Z,816.00
2022-08-17T05:14:11.045Z,784.00
2022-08-17T05:15:11.032Z,740.00
2022-08-17T05:16:11.042Z,696.00
2022-08-17T05:17:11.425Z,660.00
2022-08-17T05:18:11.001Z,640.00
2022-08-17T05:19:11.019Z,644.00
2022-08-17T05:20:11.010Z,676.00
2022-08-17T05:21:10.959Z,724.00
2022-08-17T05:22:11.031Z,784.00
2022-08-17T05:23:10.931Z,856.00
2022-08-17T05:24:16.728Z,952.00
2022-08-17T05:25:11.970Z,1100.00
2022-08-17T05:26:11.656Z,1272.00
2022-08-17T05:27:18.758Z,1448.00
2022-08-17T05:28:11.881Z,1652.00
2022-08-17T05:29:10.914Z,1952.00
2022-08-17T05:30:10.869Z,2344.00
2022-08-17T05:31:10.873Z,2760.00
2022-08-17T05:32:38.495Z,3124.00
2022-08-17T05:33:12.021Z,3380.00
2022-08-17T05:34:10.879Z,3680.00
2022-08-17T05:35:10.843Z,4164.00
2022-08-17T05:36:10.803Z,4796.00
2022-08-17T05:37:11.784Z,5432.00
2022-08-17T05:38:10.903Z,5984.00
2022-08-17T05:39:16.614Z,6460.00
2022-08-17T05:40:11.900Z,6840.00
2022-08-17T05:41:10.752Z,7080.00
2022-08-17T05:42:10.717Z,7244.00
2022-08-17T05:43:10.809Z,7368.00
2022-08-17T05:44:10.719Z,7540.00
2022-08-17T05:45:10.695Z,7780.00
2022-08-17T05:46:10.676Z,8140.00
2022-08-17T05:47:10.702Z,8684.00
2022-08-17T05:48:10.706Z,9340.00
2022-08-17T05:49:10.668Z,9988.00
2022-08-17T05:50:10.641Z,10524.00
2022-08-17T05:51:11.655Z,10936.00
2022-08-17T05:52:10.624Z,11480.00
2022-08-17T05:53:10.605Z,12208.00
2022-08-17T05:54:10.696Z,13148.00
2022-08-17T05:55:10.585Z,13644.00
2022-08-17T05:56:30.276Z,14100.00
2022-08-17T05:57:11.609Z,14604.00
2022-08-17T05:58:10.545Z,14804.00
2022-08-17T05:59:10.558Z,15648.00
2022-08-17T06:00:10.550Z,15680.00
2022-08-17T06:01:10.632Z,15392.00
2022-08-17T06:02:10.572Z,14540.00
2022-08-17T06:03:10.517Z,13380.00
2022-08-17T06:04:10.514Z,11884.00
2022-08-17T06:05:10.494Z,10120.00
2022-08-17T06:06:10.541Z,8332.00
2022-08-17T06:07:10.460Z,5992.00
2022-08-17T06:08:10.438Z,4760.00
2022-08-17T06:09:10.564Z,4112.00
2022-08-17T06:10:10.426Z,3844.00
2022-08-17T06:11:10.460Z,3804.00
2022-08-17T06:12:14.326Z,3848.00
2022-08-17T06:13:11.442Z,3920.00
2022-08-17T06:14:10.399Z,3968.00
2022-08-17T06:15:10.410Z,3992.00
2022-08-17T06:16:32.918Z,4008.00
2022-08-17T06:17:11.395Z,3972.00
2022-08-17T06:18:10.371Z,3944.00
2022-08-17T06:19:10.359Z,3808.00
2022-08-17T06:20:10.314Z,3512.00
2022-08-17T06:21:10.323Z,3160.00
2022-08-17T06:22:10.392Z,2884.00
2022-08-17T06:23:10.328Z,2632.00
2022-08-17T06:24:10.302Z,2456.00
2022-08-17T06:25:10.985Z,2392.00
2022-08-17T06:26:10.365Z,2416.00
2022-08-17T06:27:10.265Z,2520.00
2022-08-17T06:28:14.083Z,2636.00
2022-08-17T06:29:10.300Z,2820.00
2022-08-17T06:30:11.272Z,3036.00
2022-08-17T06:31:10.261Z,3488.00
2022-08-17T06:32:10.295Z,4080.00
2022-08-17T06:33:10.182Z,4828.00
2022-08-17T06:34:10.183Z,5416.00
2022-08-17T06:35:10.209Z,5624.00
2022-08-17T06:36:10.174Z,5388.00
2022-08-17T06:37:10.145Z,5264.00
2022-08-17T06:38:10.248Z,5512.00
2022-08-17T06:39:11.183Z,6120.00
2022-08-17T06:40:10.153Z,6932.00
2022-08-17T06:41:10.104Z,7528.00
2022-08-17T06:42:10.115Z,7708.00
2022-08-17T06:43:11.311Z,7668.00
2022-08-17T06:44:10.084Z,6736.00
2022-08-17T06:45:10.055Z,5904.00
2022-08-17T06:46:10.144Z,4732.00
2022-08-17T06:47:10.097Z,3840.00
2022-08-17T06:48:10.035Z,3216.00
2022-08-17T06:49:10.014Z,2816.00
2022-08-17T06:50:10.030Z,2580.00
2022-08-17T06:51:09.985Z,2500.00
2022-08-17T06:52:09.995Z,2560.00
2022-08-17T06:53:11.006Z,2652.00
2022-08-17T06:54:10.003Z,2740.00
2022-08-17T06:55:09.943Z,2836.00
2022-08-17T06:56:11.023Z,3020.00
2022-08-17T06:57:09.984Z,3364.00
2022-08-17T06:58:15.954Z,3620.00
2022-08-17T06:59:10.996Z,3844.00
2022-08-17T07:00:09.882Z,4080.00
2022-08-17T07:01:09.937Z,4320.00
2022-08-17T07:02:09.900Z,4584.00
2022-08-17T07:03:10.178Z,4932.00
2022-08-17T07:04:11.964Z,5688.00
2022-08-17T07:05:09.965Z,6964.00
2022-08-17T07:06:09.831Z,7544.00
2022-08-17T07:07:09.814Z,7568.00
2022-08-17T07:08:09.815Z,7784.00
2022-08-17T07:09:09.831Z,8216.00
2022-08-17T07:10:09.803Z,8376.00
2022-08-17T07:11:09.813Z,8192.00
2022-08-17T07:12:09.765Z,7912.00
2022-08-17T07:13:09.767Z,7592.00
2022-08-17T07:14:12.809Z,7236.00
2022-08-17T07:15:10.776Z,6856.00
2022-08-17T07:16:09.822Z,6796.00
2022-08-17T07:17:09.706Z,6660.00
2022-08-17T07:18:09.773Z,6564.00
2022-08-17T07:19:10.988Z,6764.00
2022-08-17T07:20:09.686Z,7440.00
2022-08-17T07:21:11.969Z,8252.00
2022-08-17T07:22:09.721Z,8924.00
2022-08-17T07:23:09.655Z,10564.00
2022-08-17T07:24:09.646Z,10688.00
2022-08-17T07:25:10.657Z,9128.00
2022-08-17T07:26:10.675Z,8136.00
2022-08-17T07:27:09.628Z,7012.00
2022-08-17T07:28:09.644Z,6212.00
2022-08-17T07:29:09.644Z,5824.00
2022-08-17T07:30:10.986Z,5916.00
2022-08-17T07:31:09.604Z,6288.00
2022-08-17T07:32:09.633Z,6264.00
2022-08-17T07:33:09.549Z,5656.00
2022-08-17T07:34:09.590Z,5092.00
2022-08-17T07:35:10.663Z,4688.00
2022-08-17T07:36:09.507Z,4740.00
2022-08-17T07:37:09.510Z,4892.00
2022-08-17T07:38:24.731Z,4784.00
2022-08-17T07:39:10.507Z,4508.00
2022-08-17T07:40:16.204Z,4276.00
2022-08-17T07:41:10.468Z,4260.00
2022-08-17T07:42:09.520Z,4480.00
2022-08-17T07:43:11.437Z,4856.00
2022-08-17T07:44:10.504Z,5168.00
2022-08-17T07:45:09.478Z,5436.00
2022-08-17T07:46:09.491Z,5764.00
2022-08-17T07:47:09.460Z,6124.00
2022-08-17T07:48:09.420Z,6464.00
2022-08-17T07:49:09.392Z,6572.00
2022-08-17T07:50:09.378Z,6508.00
2022-08-17T07:51:09.392Z,6684.00
2022-08-17T07:52:24.820Z,7000.00
2022-08-17T07:53:10.477Z,7324.00
2022-08-17T07:54:14.513Z,7844.00
2022-08-17T07:55:10.315Z,8420.00
2022-08-17T07:56:09.417Z,9096.00
2022-08-17T07:57:09.294Z,10024.00
2022-08-17T07:58:09.320Z,11068.00
2022-08-17T07:59:09.314Z,11584.00
2022-08-17T08:00:12.741Z,11640.00
2022-08-17T08:01:10.239Z,11644.00
2022-08-17T08:02:10.167Z,12080.00
2022-08-17T08:03:09.223Z,13064.00
2022-08-17T08:04:09.344Z,13600.00
2022-08-17T08:05:10.106Z,14100.00
2022-08-17T08:06:09.333Z,14448.00
2022-08-17T08:07:09.265Z,13612.00
2022-08-17T08:08:09.254Z,12540.00
2022-08-17T08:09:10.237Z,12400.00
2022-08-17T08:10:09.194Z,12880.00
2022-08-17T08:11:09.150Z,13464.00
2022-08-17T08:12:09.114Z,14288.00
2022-08-17T08:13:12.254Z,15076.00
2022-08-17T08:14:09.112Z,15896.00
2022-08-17T08:15:09.099Z,17536.00
2022-08-17T08:16:09.088Z,18848.00
2022-08-17T08:17:09.392Z,18880.00
2022-08-17T08:18:09.073Z,19104.00
2022-08-17T08:19:09.093Z,18368.00
2022-08-17T08:20:52.521Z,16832.00
2022-08-17T08:21:10.037Z,15020.00
2022-08-17T08:22:09.049Z,14080.00
2022-08-17T08:23:09.046Z,14752.00
2022-08-17T08:24:09.039Z,17600.00
2022-08-17T08:25:08.979Z,21088.00
2022-08-17T08:26:08.991Z,24544.00
2022-08-17T08:27:09.018Z,26432.00
2022-08-17T08:28:08.957Z,27104.00
2022-08-17T08:29:08.942Z,26560.00
2022-08-17T08:30:08.965Z,25568.00
2022-08-17T08:31:08.938Z,25056.00
2022-08-17T08:32:09.004Z,24032.00
2022-08-17T08:33:08.911Z,22432.00
2022-08-17T08:34:08.878Z,20768.00
2022-08-17T08:35:09.871Z,19456.00
2022-08-17T08:36:08.902Z,19328.00
2022-08-17T08:37:17.800Z,20096.00
2022-08-17T08:38:09.896Z,20960.00
2022-08-17T08:39:08.838Z,21792.00
2022-08-17T08:40:09.081Z,22528.00
2022-08-17T08:41:08.825Z,23840.00
2022-08-17T08:42:08.805Z,25536.00
2022-08-17T08:43:08.834Z,27168.00
2022-08-17T08:44:08.819Z,30016.00
2022-08-17T08:45:08.863Z,32224.00
2022-08-17T08:46:08.789Z,33632.00
2022-08-17T08:47:08.751Z,32672.00
2022-08-17T08:48:12.829Z,29120.00
2022-08-17T08:49:10.150Z,26976.00
2022-08-17T08:50:08.711Z,24800.00
2022-08-17T08:51:09.804Z,21920.00
2022-08-17T08:52:08.736Z,19488.00
2022-08-17T08:53:08.713Z,17760.00
2022-08-17T08:54:08.737Z,16576.00
2022-08-17T08:55:08.683Z,15652.00
2022-08-17T08:56:08.693Z,15092.00
2022-08-17T08:57:29.153Z,14308.00
2022-08-17T08:58:31.884Z,13800.00
2022-08-17T08:59:09.620Z,13636.00
2022-08-17T09:00:08.656Z,13376.00
2022-08-17T09:01:08.638Z,12828.00
2022-08-17T09:02:09.729Z,11580.00
2022-08-17T09:03:08.660Z,10700.00
2022-08-17T09:04:23.329Z,9968.00
2022-08-17T09:05:14.410Z,9536.00
2022-08-17T09:06:32.095Z,9204.00
2022-08-17T09:07:09.538Z,9260.00
2022-08-17T09:08:08.594Z,9268.00
2022-08-17T09:09:08.547Z,9376.00
2022-08-17T09:10:08.501Z,9384.00
2022-08-17T09:11:08.485Z,9288.00
2022-08-17T09:12:08.471Z,9176.00
2022-08-17T09:13:10.156Z,8928.00
2022-08-17T09:14:21.573Z,8132.00
2022-08-17T09:15:12.826Z,8596.00
2022-08-17T09:16:08.477Z,8360.00
2022-08-17T09:17:08.419Z,7512.00
2022-08-17T09:19:00.068Z,6588.00
2022-08-17T09:19:09.395Z,3536.00
2022-08-17T09:20:08.397Z,2112.00
2022-08-17T09:21:08.400Z,4040.00
2022-08-17T09:22:08.367Z,6048.00
2022-08-17T09:23:08.446Z,6284.00
2022-08-17T09:24:08.409Z,6552.00
2022-08-17T09:25:08.354Z,7080.00
2022-08-17T09:26:08.318Z,7756.00
2022-08-17T09:27:08.328Z,8196.00
2022-08-17T09:28:08.363Z,8448.00
2022-08-17T09:29:08.306Z,8640.00
2022-08-17T09:30:08.322Z,8788.00
2022-08-17T09:31:08.313Z,8704.00
2022-08-17T09:32:08.292Z,8416.00
2022-08-17T09:33:08.277Z,7952.00
2022-08-17T09:34:08.436Z,7348.00
2022-08-17T09:35:08.251Z,6856.00
2022-08-17T09:36:08.285Z,6412.00
2022-08-17T09:37:08.197Z,5976.00
2022-08-17T09:38:08.238Z,5628.00
2022-08-17T09:39:08.194Z,5456.00
2022-08-17T09:40:08.224Z,5432.00
2022-08-17T09:41:08.190Z,5524.00
2022-08-17T09:42:08.151Z,5672.00
2022-08-17T09:43:08.211Z,5856.00
2022-08-17T09:44:22.690Z,5960.00
2022-08-17T09:45:09.207Z,6004.00
2022-08-17T09:46:08.183Z,6004.00
2022-08-17T09:47:08.504Z,5948.00
2022-08-17T09:48:09.127Z,5888.00
2022-08-17T09:49:08.072Z,5832.00
2022-08-17T09:50:08.099Z,5804.00
2022-08-17T09:51:08.078Z,5712.00
2022-08-17T09:52:08.081Z,5476.00
2022-08-17T09:53:08.107Z,5156.00
2022-08-17T09:54:36.909Z,4844.00
2022-08-17T09:55:08.998Z,4748.00
2022-08-17T09:56:08.026Z,4868.00
2022-08-17T09:57:28.738Z,5068.00
2022-08-17T09:58:09.009Z,5272.00
2022-08-17T09:59:07.981Z,5472.00
2022-08-17T10:00:07.987Z,5704.00
2022-08-17T10:01:07.989Z,5960.00
2022-08-17T10:02:07.934Z,6172.00
2022-08-17T10:03:08.954Z,6352.00
2022-08-17T10:04:08.009Z,6492.00
2022-08-17T10:05:08.853Z,6636.00
2022-08-17T10:06:08.286Z,6800.00
2022-08-17T10:07:07.893Z,6848.00
2022-08-17T10:08:07.892Z,6932.00
2022-08-17T10:09:07.859Z,7112.00
2022-08-17T10:10:13.580Z,7448.00
2022-08-17T10:11:08.869Z,8024.00
2022-08-17T10:12:07.818Z,8964.00
2022-08-17T10:13:09.576Z,10492.00
2022-08-17T10:14:35.960Z,13092.00
2022-08-17T10:15:11.145Z,17600.00
2022-08-17T10:16:07.795Z,23040.00
2022-08-17T10:17:07.784Z,26144.00
2022-08-17T10:18:07.917Z,27040.00
2022-08-17T10:19:07.794Z,27264.00
2022-08-17T10:20:07.766Z,26784.00
2022-08-17T10:21:07.813Z,26208.00
2022-08-17T10:22:32.362Z,25376.00
2022-08-17T10:23:08.802Z,24896.00
2022-08-17T10:24:07.696Z,24384.00
2022-08-17T10:25:23.227Z,23360.00
2022-08-17T10:26:08.725Z,21632.00
2022-08-17T10:27:07.660Z,18784.00
2022-08-17T10:28:09.046Z,15956.00
2022-08-17T10:29:08.637Z,14260.00
2022-08-17T10:30:07.659Z,13124.00
2022-08-17T10:31:36.642Z,12472.00
2022-08-17T10:32:08.707Z,13744.00
2022-08-17T10:33:07.612Z,15756.00
2022-08-17T10:34:07.612Z,17408.00
2022-08-17T10:35:07.623Z,17792.00
2022-08-17T10:36:10.766Z,17088.00
2022-08-17T10:37:07.554Z,17248.00
2022-08-17T10:38:07.633Z,19040.00
2022-08-17T10:39:07.626Z,21728.00
2022-08-17T10:40:07.773Z,22944.00
2022-08-17T10:41:07.606Z,23488.00
2022-08-17T10:42:07.500Z,25056.00
2022-08-17T10:43:07.507Z,25376.00
2022-08-17T10:44:38.729Z,25920.00
2022-08-17T10:45:08.499Z,28960.00
2022-08-17T10:46:10.455Z,31424.00
2022-08-17T10:47:08.450Z,32288.00
2022-08-17T10:48:07.784Z,31200.00
2022-08-17T10:49:07.484Z,30080.00
2022-08-17T10:50:07.552Z,28384.00
2022-08-17T10:51:07.401Z,25664.00
2022-08-17T10:52:07.400Z,24864.00
2022-08-17T10:53:07.400Z,24640.00
2022-08-17T10:54:07.374Z,24864.00
2022-08-17T10:55:07.382Z,25056.00
2022-08-17T10:56:07.412Z,24256.00
2022-08-17T10:57:07.349Z,22464.00
2022-08-17T10:58:07.502Z,23040.00
2022-08-17T10:59:07.954Z,26720.00
2022-08-17T11:00:07.312Z,27872.00
2022-08-17T11:01:07.350Z,25568.00
2022-08-17T11:02:07.318Z,25952.00
2022-08-17T11:03:07.316Z,36800.00
2022-08-17T11:04:07.296Z,28608.00
2022-08-17T11:05:07.317Z,33888.00
2022-08-17T11:06:07.289Z,35168.00
2022-08-17T11:07:07.341Z,33952.00
2022-08-17T11:08:07.342Z,37344.00
2022-08-17T11:09:07.253Z,43264.00
2022-08-17T11:10:07.245Z,38080.00
2022-08-17T11:11:07.191Z,37632.00
2022-08-17T11:12:07.179Z,35392.00
2022-08-17T11:13:07.204Z,35808.00
2022-08-17T11:14:07.171Z,33440.00
2022-08-17T11:15:07.256Z,31424.00
2022-08-17T11:16:08.482Z,30880.00
2022-08-17T11:18:15.210Z,30752.00
2022-08-17T11:19:07.099Z,28000.00
2022-08-17T11:20:07.108Z,27200.00
2022-08-17T11:21:07.125Z,28000.00
2022-08-17T11:22:07.112Z,28320.00
2022-08-17T11:23:07.172Z,27648.00
2022-08-17T11:24:07.065Z,26464.00
2022-08-17T11:25:08.453Z,26528.00
2022-08-17T11:26:08.365Z,27648.00
2022-08-17T11:27:07.024Z,28256.00
2022-08-17T11:28:07.090Z,27520.00
2022-08-17T11:29:07.032Z,26496.00
2022-08-17T11:30:07.025Z,25504.00
2022-08-17T11:31:06.994Z,24736.00
2022-08-17T11:32:07.084Z,23552.00
2022-08-17T11:33:07.277Z,22816.00
2022-08-17T11:34:07.352Z,22752.00
2022-08-17T11:35:07.303Z,21792.00
2022-08-17T11:36:06.973Z,20288.00
2022-08-17T11:37:06.960Z,20032.00
2022-08-17T11:38:10.854Z,20704.00
2022-08-17T11:39:07.986Z,24192.00
2022-08-17T11:40:07.034Z,24704.00
2022-08-17T11:41:06.937Z,25824.00
2022-08-17T11:42:06.917Z,26464.00
2022-08-17T11:43:09.590Z,25664.00
2022-08-17T11:44:06.891Z,23488.00
2022-08-17T11:45:06.846Z,20384.00
2022-08-17T11:46:06.832Z,17888.00
2022-08-17T11:47:06.844Z,17888.00
2022-08-17T11:48:27.268Z,22752.00
2022-08-17T11:49:07.835Z,27552.00
2022-08-17T11:50:06.795Z,26592.00
2022-08-17T11:51:06.802Z,40832.00
2022-08-17T11:52:06.832Z,32864.00
2022-08-17T11:53:06.814Z,25408.00
2022-08-17T11:54:31.837Z,28640.00
2022-08-17T11:55:33.524Z,61792.00
2022-08-17T11:56:07.709Z,95584.00
2022-08-17T11:57:06.696Z,86336.00
2022-08-17T11:58:06.753Z,92000.00
2022-08-17T11:59:06.708Z,86080.00
2022-08-17T12:00:06.754Z,44000.00
2022-08-17T12:01:06.689Z,52800.00
2022-08-17T12:02:06.642Z,51648.00
2022-08-17T12:03:06.719Z,69696.00
2022-08-17T12:04:06.666Z,63488.00
2022-08-17T12:05:09.729Z,85856.00
2022-08-17T12:06:07.621Z,70944.00
2022-08-17T12:07:06.608Z,64864.00
2022-08-17T12:08:06.597Z,53248.00
2022-08-17T12:09:06.654Z,64800.00
2022-08-17T12:10:06.807Z,67744.00
2022-08-17T12:11:06.557Z,73632.00
2022-08-17T12:12:12.718Z,76768.00
2022-08-17T12:13:07.535Z,73408.00
2022-08-17T12:14:06.558Z,30368.00
2022-08-17T12:15:10.539Z,29152.00
2022-08-17T12:16:06.523Z,69504.00
2022-08-17T12:17:06.497Z,48384.00
2022-08-17T12:18:06.778Z,64288.00
2022-08-17T12:19:06.589Z,56224.00
2022-08-17T12:20:06.489Z,35648.00
2022-08-17T12:21:06.449Z,47424.00
2022-08-17T12:22:06.434Z,76608.00
2022-08-17T12:23:06.451Z,78688.00
2022-08-17T12:24:06.449Z,89888.00
2022-08-17T12:25:06.406Z,83360.00
2022-08-17T12:26:06.459Z,80064.00
2022-08-17T12:27:06.758Z,56032.00
2022-08-17T12:28:07.833Z,67264.00
2022-08-17T12:29:06.361Z,33888.00
2022-08-17T12:30:06.445Z,34208.00
2022-08-17T12:31:06.380Z,31104.00
2022-08-17T12:32:06.365Z,27968.00